sensor_id;sensor_type;location;lat;lon;timestamp;P1;durP1;ratioP1;P2;durP2;ratioP2
73733;SDS011;62039;50.000;9.064;2023-04-15T00:01:44;4.47;;;3.17;;
73733;SDS011;62039;50.000;9.064;2023-04-15T00:04:11;3.53;;;3.10;;
73733;SDS011;62039;50.000;9.064;2023-04-15T00:06:38;3.13;;;2.70;;
73733;SDS011;62039;50.000;9.064;2023-04-15T00:09:05;2.40;;;2.20;;
73733;SDS011;62039;50.000;9.064;2023-04-15T00:11:32;2.20;;;2.00;;
73733;SDS011;62039;50.000;9.064;2023-04-15T00:13:59;2.73;;;2.27;;
73733;SDS011;62039;50.000;9.064;2023-04-15T00:16:26;2.43;;;2.23;;
73733;SDS011;62039;50.000;9.064;2023-04-15T00:18:56;2.37;;;2.17;;
73733;SDS011;62039;50.000;9.064;2023-04-15T00:21:23;3.93;;;2.20;;
73733;SDS011;62039;50.000;9.064;2023-04-15T00:23:50;2.93;;;1.80;;
73733;SDS011;62039;50.000;9.064;2023-04-15T00:26:17;1.80;;;1.70;;
73733;SDS011;62039;50.000;9.064;2023-04-15T00:28:44;2.57;;;1.77;;
73733;SDS011;62039;50.000;9.064;2023-04-15T00:31:11;2.47;;;1.77;;
73733;SDS011;62039;50.000;9.064;2023-04-15T00:33:38;2.40;;;1.70;;
73733;SDS011;62039;50.000;9.064;2023-04-15T00:36:07;2.70;;;1.97;;
73733;SDS011;62039;50.000;9.064;2023-04-15T00:38:37;2.23;;;1.90;;
73733;SDS011;62039;50.000;9.064;2023-04-15T00:41:04;2.40;;;2.20;;
73733;SDS011;62039;50.000;9.064;2023-04-15T00:43:31;2.20;;;2.00;;
73733;SDS011;62039;50.000;9.064;2023-04-15T00:45:58;2.27;;;2.07;;
73733;SDS011;62039;50.000;9.064;2023-04-15T00:48:26;1.70;;;1.60;;
73733;SDS011;62039;50.000;9.064;2023-04-15T00:50:53;2.93;;;1.80;;
73733;SDS011;62039;50.000;9.064;2023-04-15T00:53:23;4.67;;;1.80;;
73733;SDS011;62039;50.000;9.064;2023-04-15T00:55:50;2.60;;;2.00;;
73733;SDS011;62039;50.000;9.064;2023-04-15T00:58:17;3.40;;;1.80;;
73733;SDS011;62039;50.000;9.064;2023-04-15T01:00:44;2.10;;;1.70;;
73733;SDS011;62039;50.000;9.064;2023-04-15T01:03:11;2.87;;;1.77;;
73733;SDS011;62039;50.000;9.064;2023-04-15T01:05:38;3.57;;;2.00;;
73733;SDS011;62039;50.000;9.064;2023-04-15T01:08:05;1.60;;;1.50;;
73733;SDS011;62039;50.000;9.064;2023-04-15T01:10:35;2.67;;;1.57;;
73733;SDS011;62039;50.000;9.064;2023-04-15T01:13:02;2.00;;;1.80;;
73733;SDS011;62039;50.000;9.064;2023-04-15T01:15:29;2.20;;;1.60;;
73733;SDS011;62039;50.000;9.064;2023-04-15T01:17:56;1.80;;;1.50;;
73733;SDS011;62039;50.000;9.064;2023-04-15T01:20:23;1.70;;;1.53;;
73733;SDS011;62039;50.000;9.064;2023-04-15T01:22:50;4.13;;;1.90;;
73733;SDS011;62039;50.000;9.064;2023-04-15T01:25:18;2.40;;;1.73;;
73733;SDS011;62039;50.000;9.064;2023-04-15T01:27:48;2.07;;;1.70;;
73733;SDS011;62039;50.000;9.064;2023-04-15T01:30:15;2.93;;;1.90;;
73733;SDS011;62039;50.000;9.064;2023-04-15T01:32:41;2.27;;;1.37;;
73733;SDS011;62039;50.000;9.064;2023-04-15T01:35:08;2.67;;;1.90;;
73733;SDS011;62039;50.000;9.064;2023-04-15T01:37:35;2.03;;;1.63;;
73733;SDS011;62039;50.000;9.064;2023-04-15T01:40:03;2.70;;;1.80;;
73733;SDS011;62039;50.000;9.064;2023-04-15T01:42:31;2.43;;;1.50;;
73733;SDS011;62039;50.000;9.064;2023-04-15T01:45:01;2.40;;;2.07;;
73733;SDS011;62039;50.000;9.064;2023-04-15T01:47:28;1.90;;;1.80;;
73733;SDS011;62039;50.000;9.064;2023-04-15T01:49:55;1.90;;;1.73;;
73733;SDS011;62039;50.000;9.064;2023-04-15T01:52:22;1.90;;;1.60;;
73733;SDS011;62039;50.000;9.064;2023-04-15T01:54:49;3.43;;;2.10;;
73733;SDS011;62039;50.000;9.064;2023-04-15T01:57:16;2.27;;;2.07;;
73733;SDS011;62039;50.000;9.064;2023-04-15T01:59:43;2.47;;;2.10;;
73733;SDS011;62039;50.000;9.064;2023-04-15T02:02:13;1.97;;;1.73;;
73733;SDS011;62039;50.000;9.064;2023-04-15T02:04:40;3.97;;;2.00;;
73733;SDS011;62039;50.000;9.064;2023-04-15T02:07:07;2.27;;;1.80;;
73733;SDS011;62039;50.000;9.064;2023-04-15T02:09:34;2.20;;;1.90;;
73733;SDS011;62039;50.000;9.064;2023-04-15T02:12:00;2.30;;;2.10;;
73733;SDS011;62039;50.000;9.064;2023-04-15T02:14:27;2.30;;;1.73;;
73733;SDS011;62039;50.000;9.064;2023-04-15T02:16:54;2.23;;;1.70;;
73733;SDS011;62039;50.000;9.064;2023-04-15T02:19:24;3.50;;;1.90;;
73733;SDS011;62039;50.000;9.064;2023-04-15T02:21:51;1.70;;;1.60;;
73733;SDS011;62039;50.000;9.064;2023-04-15T02:24:18;3.27;;;2.00;;
73733;SDS011;62039;50.000;9.064;2023-04-15T02:26:45;1.63;;;1.53;;
73733;SDS011;62039;50.000;9.064;2023-04-15T02:29:12;2.93;;;2.07;;
73733;SDS011;62039;50.000;9.064;2023-04-15T02:31:39;2.00;;;1.67;;
73733;SDS011;62039;50.000;9.064;2023-04-15T02:34:06;2.90;;;1.90;;
73733;SDS011;62039;50.000;9.064;2023-04-15T02:36:35;3.27;;;1.90;;
73733;SDS011;62039;50.000;9.064;2023-04-15T02:39:04;2.87;;;2.20;;
73733;SDS011;62039;50.000;9.064;2023-04-15T02:41:31;2.00;;;1.80;;
73733;SDS011;62039;50.000;9.064;2023-04-15T02:43:58;3.30;;;1.90;;
73733;SDS011;62039;50.000;9.064;2023-04-15T02:46:24;3.70;;;2.33;;
73733;SDS011;62039;50.000;9.064;2023-04-15T02:48:51;2.57;;;2.00;;
73733;SDS011;62039;50.000;9.064;2023-04-15T02:51:19;2.10;;;1.90;;
73733;SDS011;62039;50.000;9.064;2023-04-15T02:53:49;2.90;;;1.90;;
73733;SDS011;62039;50.000;9.064;2023-04-15T02:56:16;2.43;;;1.90;;
73733;SDS011;62039;50.000;9.064;2023-04-15T02:58:43;2.73;;;1.93;;
73733;SDS011;62039;50.000;9.064;2023-04-15T03:01:10;2.30;;;2.10;;
73733;SDS011;62039;50.000;9.064;2023-04-15T03:03:37;2.37;;;2.10;;
73733;SDS011;62039;50.000;9.064;2023-04-15T03:06:04;2.93;;;2.27;;
73733;SDS011;62039;50.000;9.064;2023-04-15T03:08:31;2.40;;;2.20;;
73733;SDS011;62039;50.000;9.064;2023-04-15T03:11:01;3.03;;;2.10;;
73733;SDS011;62039;50.000;9.064;2023-04-15T03:13:28;2.87;;;2.30;;
73733;SDS011;62039;50.000;9.064;2023-04-15T03:15:55;2.53;;;2.17;;
73733;SDS011;62039;50.000;9.064;2023-04-15T03:18:22;2.40;;;2.03;;
73733;SDS011;62039;50.000;9.064;2023-04-15T03:20:48;2.63;;;1.93;;
73733;SDS011;62039;50.000;9.064;2023-04-15T03:23:15;2.63;;;2.20;;
73733;SDS011;62039;50.000;9.064;2023-04-15T03:25:43;2.60;;;1.83;;
73733;SDS011;62039;50.000;9.064;2023-04-15T03:28:13;2.40;;;2.17;;
73733;SDS011;62039;50.000;9.064;2023-04-15T03:30:40;2.60;;;2.40;;
73733;SDS011;62039;50.000;9.064;2023-04-15T03:33:07;2.80;;;2.07;;
73733;SDS011;62039;50.000;9.064;2023-04-15T03:35:33;3.47;;;2.50;;
73733;SDS011;62039;50.000;9.064;2023-04-15T03:38:00;3.87;;;2.43;;
73733;SDS011;62039;50.000;9.064;2023-04-15T03:40:28;3.03;;;1.97;;
73733;SDS011;62039;50.000;9.064;2023-04-15T03:42:54;2.27;;;2.07;;
73733;SDS011;62039;50.000;9.064;2023-04-15T03:45:24;1.97;;;1.83;;
73733;SDS011;62039;50.000;9.064;2023-04-15T03:47:51;3.07;;;2.17;;
73733;SDS011;62039;50.000;9.064;2023-04-15T03:50:18;3.17;;;2.37;;
73733;SDS011;62039;50.000;9.064;2023-04-15T03:52:45;2.47;;;2.27;;
73733;SDS011;62039;50.000;9.064;2023-04-15T03:55:12;2.43;;;2.20;;
73733;SDS011;62039;50.000;9.064;2023-04-15T03:57:39;2.73;;;1.80;;
73733;SDS011;62039;50.000;9.064;2023-04-15T04:00:06;2.20;;;2.00;;
73733;SDS011;62039;50.000;9.064;2023-04-15T04:02:37;2.17;;;1.80;;
73733;SDS011;62039;50.000;9.064;2023-04-15T04:05:04;2.03;;;1.63;;
73733;SDS011;62039;50.000;9.064;2023-04-15T04:07:31;2.43;;;2.07;;
73733;SDS011;62039;50.000;9.064;2023-04-15T04:09:58;2.47;;;1.80;;
73733;SDS011;62039;50.000;9.064;2023-04-15T04:12:25;2.90;;;2.20;;
73733;SDS011;62039;50.000;9.064;2023-04-15T04:14:52;2.57;;;2.20;;
73733;SDS011;62039;50.000;9.064;2023-04-15T04:17:19;4.67;;;2.37;;
73733;SDS011;62039;50.000;9.064;2023-04-15T04:19:49;2.60;;;2.40;;
73733;SDS011;62039;50.000;9.064;2023-04-15T04:22:16;4.00;;;2.50;;
73733;SDS011;62039;50.000;9.064;2023-04-15T04:24:42;3.20;;;2.30;;
73733;SDS011;62039;50.000;9.064;2023-04-15T04:27:09;3.37;;;2.10;;
73733;SDS011;62039;50.000;9.064;2023-04-15T04:29:36;2.67;;;2.47;;
73733;SDS011;62039;50.000;9.064;2023-04-15T04:32:03;3.07;;;2.70;;
73733;SDS011;62039;50.000;9.064;2023-04-15T04:34:31;3.60;;;2.73;;
73733;SDS011;62039;50.000;9.064;2023-04-15T04:37:00;2.60;;;2.40;;
73733;SDS011;62039;50.000;9.064;2023-04-15T04:39:27;3.10;;;2.60;;
73733;SDS011;62039;50.000;9.064;2023-04-15T04:41:54;2.90;;;2.60;;
73733;SDS011;62039;50.000;9.064;2023-04-15T04:44:21;3.17;;;2.87;;
73733;SDS011;62039;50.000;9.064;2023-04-15T04:46:48;2.90;;;2.60;;
73733;SDS011;62039;50.000;9.064;2023-04-15T04:49:15;3.13;;;2.80;;
73733;SDS011;62039;50.000;9.064;2023-04-15T04:51:42;3.00;;;2.70;;
73733;SDS011;62039;50.000;9.064;2023-04-15T04:54:11;3.33;;;3.00;;
73733;SDS011;62039;50.000;9.064;2023-04-15T04:56:38;3.07;;;2.73;;
73733;SDS011;62039;50.000;9.064;2023-04-15T04:59:05;4.70;;;3.63;;
73733;SDS011;62039;50.000;9.064;2023-04-15T05:01:32;7.47;;;5.37;;
73733;SDS011;62039;50.000;9.064;2023-04-15T05:03:59;5.97;;;4.77;;
73733;SDS011;62039;50.000;9.064;2023-04-15T05:06:26;4.93;;;4.13;;
73733;SDS011;62039;50.000;9.064;2023-04-15T05:08:53;4.60;;;3.50;;
73733;SDS011;62039;50.000;9.064;2023-04-15T05:11:22;4.93;;;3.20;;
73733;SDS011;62039;50.000;9.064;2023-04-15T05:13:49;2.97;;;2.73;;
73733;SDS011;62039;50.000;9.064;2023-04-15T05:16:16;4.93;;;3.13;;
73733;SDS011;62039;50.000;9.064;2023-04-15T05:18:43;3.07;;;2.63;;
73733;SDS011;62039;50.000;9.064;2023-04-15T05:21:10;3.37;;;2.63;;
73733;SDS011;62039;50.000;9.064;2023-04-15T05:23:37;3.10;;;2.80;;
73733;SDS011;62039;50.000;9.064;2023-04-15T05:26:04;4.47;;;2.80;;
73733;SDS011;62039;50.000;9.064;2023-04-15T05:28:34;3.00;;;2.57;;
73733;SDS011;62039;50.000;9.064;2023-04-15T05:31:01;4.20;;;2.70;;
73733;SDS011;62039;50.000;9.064;2023-04-15T05:33:28;3.07;;;2.40;;
73733;SDS011;62039;50.000;9.064;2023-04-15T05:35:55;2.60;;;2.40;;
73733;SDS011;62039;50.000;9.064;2023-04-15T05:38:22;2.87;;;2.50;;
73733;SDS011;62039;50.000;9.064;2023-04-15T05:40:49;2.53;;;2.30;;
73733;SDS011;62039;50.000;9.064;2023-04-15T05:43:16;2.53;;;2.33;;
73733;SDS011;62039;50.000;9.064;2023-04-15T05:45:45;3.23;;;2.63;;
73733;SDS011;62039;50.000;9.064;2023-04-15T05:48:12;3.00;;;2.70;;
73733;SDS011;62039;50.000;9.064;2023-04-15T05:50:39;5.37;;;3.10;;
73733;SDS011;62039;50.000;9.064;2023-04-15T05:53:06;3.77;;;2.80;;
73733;SDS011;62039;50.000;9.064;2023-04-15T05:55:34;3.43;;;2.90;;
73733;SDS011;62039;50.000;9.064;2023-04-15T05:58:00;4.27;;;3.00;;
73733;SDS011;62039;50.000;9.064;2023-04-15T06:00:27;3.10;;;2.80;;
73733;SDS011;62039;50.000;9.064;2023-04-15T06:02:57;3.20;;;2.90;;
73733;SDS011;62039;50.000;9.064;2023-04-15T06:05:24;5.70;;;4.43;;
73733;SDS011;62039;50.000;9.064;2023-04-15T06:07:51;4.77;;;4.00;;
73733;SDS011;62039;50.000;9.064;2023-04-15T06:10:18;5.00;;;3.97;;
73733;SDS011;62039;50.000;9.064;2023-04-15T06:12:45;4.13;;;3.57;;
73733;SDS011;62039;50.000;9.064;2023-04-15T06:15:12;3.80;;;3.40;;
73733;SDS011;62039;50.000;9.064;2023-04-15T06:17:39;3.23;;;2.83;;
73733;SDS011;62039;50.000;9.064;2023-04-15T06:20:09;3.63;;;3.20;;
73733;SDS011;62039;50.000;9.064;2023-04-15T06:22:37;2.97;;;2.67;;
73733;SDS011;62039;50.000;9.064;2023-04-15T06:25:05;2.80;;;2.60;;
73733;SDS011;62039;50.000;9.064;2023-04-15T06:27:32;3.00;;;2.80;;
73733;SDS011;62039;50.000;9.064;2023-04-15T06:29:59;3.30;;;2.87;;
73733;SDS011;62039;50.000;9.064;2023-04-15T06:32:26;3.67;;;3.27;;
73733;SDS011;62039;50.000;9.064;2023-04-15T06:34:53;7.03;;;3.20;;
73733;SDS011;62039;50.000;9.064;2023-04-15T06:37:23;3.00;;;2.80;;
73733;SDS011;62039;50.000;9.064;2023-04-15T06:39:50;4.53;;;3.40;;
73733;SDS011;62039;50.000;9.064;2023-04-15T06:42:16;4.17;;;3.20;;
73733;SDS011;62039;50.000;9.064;2023-04-15T06:44:43;7.77;;;3.50;;
73733;SDS011;62039;50.000;9.064;2023-04-15T06:47:10;4.80;;;3.20;;
73733;SDS011;62039;50.000;9.064;2023-04-15T06:49:37;2.90;;;2.67;;
73733;SDS011;62039;50.000;9.064;2023-04-15T06:52:04;3.53;;;3.23;;
73733;SDS011;62039;50.000;9.064;2023-04-15T06:54:34;4.40;;;3.00;;
73733;SDS011;62039;50.000;9.064;2023-04-15T06:57:01;5.67;;;3.40;;
73733;SDS011;62039;50.000;9.064;2023-04-15T06:59:31;4.10;;;3.07;;
73733;SDS011;62039;50.000;9.064;2023-04-15T07:01:57;3.87;;;3.00;;
73733;SDS011;62039;50.000;9.064;2023-04-15T07:04:24;3.93;;;3.03;;
73733;SDS011;62039;50.000;9.064;2023-04-15T07:06:51;3.70;;;3.20;;
73733;SDS011;62039;50.000;9.064;2023-04-15T07:09:18;3.37;;;3.07;;
73733;SDS011;62039;50.000;9.064;2023-04-15T07:11:48;3.90;;;3.50;;
73733;SDS011;62039;50.000;9.064;2023-04-15T07:14:15;4.33;;;3.10;;
73733;SDS011;62039;50.000;9.064;2023-04-15T07:16:42;3.60;;;2.97;;
73733;SDS011;62039;50.000;9.064;2023-04-15T07:19:09;3.73;;;3.07;;
73733;SDS011;62039;50.000;9.064;2023-04-15T07:21:36;3.43;;;2.90;;
73733;SDS011;62039;50.000;9.064;2023-04-15T07:24:06;3.20;;;2.90;;
73733;SDS011;62039;50.000;9.064;2023-04-15T07:26:33;3.30;;;2.93;;
73733;SDS011;62039;50.000;9.064;2023-04-15T07:29:02;7.40;;;3.23;;
73733;SDS011;62039;50.000;9.064;2023-04-15T07:31:29;3.30;;;3.00;;
73733;SDS011;62039;50.000;9.064;2023-04-15T07:33:56;4.03;;;3.43;;
73733;SDS011;62039;50.000;9.064;2023-04-15T07:36:23;3.80;;;3.40;;
73733;SDS011;62039;50.000;9.064;2023-04-15T07:38:50;3.47;;;3.17;;
73733;SDS011;62039;50.000;9.064;2023-04-15T07:41:17;4.40;;;3.43;;
73733;SDS011;62039;50.000;9.064;2023-04-15T07:43:44;3.87;;;3.47;;
73733;SDS011;62039;50.000;9.064;2023-04-15T07:46:13;4.10;;;3.77;;
73733;SDS011;62039;50.000;9.064;2023-04-15T07:48:40;4.20;;;3.80;;
73733;SDS011;62039;50.000;9.064;2023-04-15T07:51:07;5.03;;;3.50;;
73733;SDS011;62039;50.000;9.064;2023-04-15T07:53:34;3.87;;;3.50;;
73733;SDS011;62039;50.000;9.064;2023-04-15T07:56:01;3.87;;;3.40;;
73733;SDS011;62039;50.000;9.064;2023-04-15T07:58:28;3.53;;;3.23;;
73733;SDS011;62039;50.000;9.064;2023-04-15T08:00:55;3.83;;;3.47;;
73733;SDS011;62039;50.000;9.064;2023-04-15T08:03:24;3.93;;;3.57;;
73733;SDS011;62039;50.000;9.064;2023-04-15T08:05:52;4.10;;;3.70;;
73733;SDS011;62039;50.000;9.064;2023-04-15T08:08:19;4.70;;;4.20;;
73733;SDS011;62039;50.000;9.064;2023-04-15T08:10:45;5.97;;;5.10;;
73733;SDS011;62039;50.000;9.064;2023-04-15T08:13:12;6.03;;;5.10;;
73733;SDS011;62039;50.000;9.064;2023-04-15T08:15:39;4.90;;;4.40;;
73733;SDS011;62039;50.000;9.064;2023-04-15T08:18:07;4.70;;;4.30;;
73733;SDS011;62039;50.000;9.064;2023-04-15T08:20:36;5.77;;;5.00;;
73733;SDS011;62039;50.000;9.064;2023-04-15T08:23:03;5.10;;;4.60;;
73733;SDS011;62039;50.000;9.064;2023-04-15T08:25:30;5.07;;;4.57;;
73733;SDS011;62039;50.000;9.064;2023-04-15T08:27:57;5.47;;;4.70;;
73733;SDS011;62039;50.000;9.064;2023-04-15T08:30:24;5.10;;;4.60;;
73733;SDS011;62039;50.000;9.064;2023-04-15T08:32:51;4.40;;;4.00;;
73733;SDS011;62039;50.000;9.064;2023-04-15T08:35:18;4.13;;;3.83;;
73733;SDS011;62039;50.000;9.064;2023-04-15T08:37:47;5.80;;;4.13;;
73733;SDS011;62039;50.000;9.064;2023-04-15T08:40:14;4.20;;;3.60;;
73733;SDS011;62039;50.000;9.064;2023-04-15T08:42:43;4.13;;;3.47;;
73733;SDS011;62039;50.000;9.064;2023-04-15T08:45:12;4.20;;;3.80;;
73733;SDS011;62039;50.000;9.064;2023-04-15T08:47:39;5.47;;;4.57;;
73733;SDS011;62039;50.000;9.064;2023-04-15T08:50:07;5.27;;;4.60;;
73733;SDS011;62039;50.000;9.064;2023-04-15T08:52:35;5.97;;;4.10;;
73733;SDS011;62039;50.000;9.064;2023-04-15T08:55:05;5.43;;;3.93;;
73733;SDS011;62039;50.000;9.064;2023-04-15T08:57:34;4.37;;;3.77;;
73733;SDS011;62039;50.000;9.064;2023-04-15T09:00:02;4.60;;;3.90;;
73733;SDS011;62039;50.000;9.064;2023-04-15T09:02:31;9.37;;;4.60;;
73733;SDS011;62039;50.000;9.064;2023-04-15T09:04:58;6.63;;;4.20;;
73733;SDS011;62039;50.000;9.064;2023-04-15T09:07:25;3.50;;;3.20;;
73733;SDS011;62039;50.000;9.064;2023-04-15T09:09:52;4.43;;;4.03;;
73733;SDS011;62039;50.000;9.064;2023-04-15T09:12:21;4.20;;;3.73;;
73733;SDS011;62039;50.000;9.064;2023-04-15T09:14:48;3.10;;;2.80;;
73733;SDS011;62039;50.000;9.064;2023-04-15T09:17:17;2.93;;;2.63;;
73733;SDS011;62039;50.000;9.064;2023-04-15T09:19:45;2.83;;;2.63;;
73733;SDS011;62039;50.000;9.064;2023-04-15T09:22:12;4.50;;;3.07;;
73733;SDS011;62039;50.000;9.064;2023-04-15T09:24:39;3.00;;;2.20;;
73733;SDS011;62039;50.000;9.064;2023-04-15T09:27:06;3.17;;;2.80;;
73733;SDS011;62039;50.000;9.064;2023-04-15T09:29:36;2.73;;;2.40;;
73733;SDS011;62039;50.000;9.064;2023-04-15T09:32:09;2.30;;;2.10;;
73733;SDS011;62039;50.000;9.064;2023-04-15T09:34:37;5.03;;;1.87;;
73733;SDS011;62039;50.000;9.064;2023-04-15T09:37:04;2.20;;;2.00;;
73733;SDS011;62039;50.000;9.064;2023-04-15T09:39:46;2.40;;;2.20;;
73733;SDS011;62039;50.000;9.064;2023-04-15T09:42:14;2.20;;;2.00;;
73733;SDS011;62039;50.000;9.064;2023-04-15T09:44:44;2.47;;;2.27;;
73733;SDS011;62039;50.000;9.064;2023-04-15T09:47:23;1.97;;;1.80;;
73733;SDS011;62039;50.000;9.064;2023-04-15T09:49:56;2.17;;;1.93;;
73733;SDS011;62039;50.000;9.064;2023-04-15T09:52:23;2.20;;;2.00;;
73733;SDS011;62039;50.000;9.064;2023-04-15T09:54:51;2.43;;;2.23;;
73733;SDS011;62039;50.000;9.064;2023-04-15T09:57:18;2.10;;;1.97;;
73733;SDS011;62039;50.000;9.064;2023-04-15T09:59:48;2.37;;;2.13;;
73733;SDS011;62039;50.000;9.064;2023-04-15T10:02:15;2.27;;;2.07;;
73733;SDS011;62039;50.000;9.064;2023-04-15T10:04:44;2.40;;;2.20;;
73733;SDS011;62039;50.000;9.064;2023-04-15T10:07:13;2.63;;;2.00;;
73733;SDS011;62039;50.000;9.064;2023-04-15T10:09:41;2.30;;;2.10;;
73733;SDS011;62039;50.000;9.064;2023-04-15T10:12:09;2.63;;;2.03;;
73733;SDS011;62039;50.000;9.064;2023-04-15T10:14:37;5.30;;;2.30;;
73733;SDS011;62039;50.000;9.064;2023-04-15T10:17:08;1.87;;;1.77;;
73733;SDS011;62039;50.000;9.064;2023-04-15T10:19:36;2.00;;;1.70;;
73733;SDS011;62039;50.000;9.064;2023-04-15T10:22:03;2.90;;;1.93;;
73733;SDS011;62039;50.000;9.064;2023-04-15T10:24:31;2.07;;;1.87;;
73733;SDS011;62039;50.000;9.064;2023-04-15T10:26:59;1.63;;;1.53;;
73733;SDS011;62039;50.000;9.064;2023-04-15T10:29:27;2.80;;;1.80;;
73733;SDS011;62039;50.000;9.064;2023-04-15T10:31:55;1.80;;;1.70;;
73733;SDS011;62039;50.000;9.064;2023-04-15T10:34:25;1.93;;;1.43;;
73733;SDS011;62039;50.000;9.064;2023-04-15T10:36:54;1.30;;;1.20;;
73733;SDS011;62039;50.000;9.064;2023-04-15T10:42:12;1.40;;;1.30;;
73733;SDS011;62039;50.000;9.064;2023-04-15T10:44:41;1.90;;;1.10;;
73733;SDS011;62039;50.000;9.064;2023-04-15T10:47:09;1.47;;;1.20;;
73733;SDS011;62039;50.000;9.064;2023-04-15T10:49:47;1.40;;;1.30;;
73733;SDS011;62039;50.000;9.064;2023-04-15T10:52:15;1.30;;;1.20;;
73733;SDS011;62039;50.000;9.064;2023-04-15T10:54:47;1.60;;;1.50;;
73733;SDS011;62039;50.000;9.064;2023-04-15T10:57:15;1.50;;;1.30;;
73733;SDS011;62039;50.000;9.064;2023-04-15T11:00:00;1.33;;;1.23;;
73733;SDS011;62039;50.000;9.064;2023-04-15T11:02:38;1.40;;;1.20;;
73733;SDS011;62039;50.000;9.064;2023-04-15T11:05:09;1.50;;;1.40;;
73733;SDS011;62039;50.000;9.064;2023-04-15T11:07:40;1.33;;;1.20;;
73733;SDS011;62039;50.000;9.064;2023-04-15T11:13:16;1.43;;;1.33;;
73733;SDS011;62039;50.000;9.064;2023-04-15T11:15:45;1.20;;;1.10;;
73733;SDS011;62039;50.000;9.064;2023-04-15T11:18:13;1.30;;;1.20;;
73733;SDS011;62039;50.000;9.064;2023-04-15T11:20:45;1.47;;;1.20;;
73733;SDS011;62039;50.000;9.064;2023-04-15T11:23:14;1.30;;;1.20;;
73733;SDS011;62039;50.000;9.064;2023-04-15T11:25:41;1.60;;;1.43;;
73733;SDS011;62039;50.000;9.064;2023-04-15T11:28:09;1.43;;;1.33;;
73733;SDS011;62039;50.000;9.064;2023-04-15T11:30:37;1.43;;;1.30;;
73733;SDS011;62039;50.000;9.064;2023-04-15T11:33:06;1.50;;;1.40;;
73733;SDS011;62039;50.000;9.064;2023-04-15T11:35:34;1.40;;;1.30;;
73733;SDS011;62039;50.000;9.064;2023-04-15T11:38:04;1.10;;;1.00;;
73733;SDS011;62039;50.000;9.064;2023-04-15T11:40:34;1.30;;;1.20;;
73733;SDS011;62039;50.000;9.064;2023-04-15T11:43:05;1.10;;;1.00;;
73733;SDS011;62039;50.000;9.064;2023-04-15T11:45:33;1.10;;;1.00;;
73733;SDS011;62039;50.000;9.064;2023-04-15T11:48:06;1.17;;;1.10;;
73733;SDS011;62039;50.000;9.064;2023-04-15T11:50:34;1.27;;;1.17;;
73733;SDS011;62039;50.000;9.064;2023-04-15T11:53:04;1.20;;;1.10;;
73733;SDS011;62039;50.000;9.064;2023-04-15T11:55:40;0.83;;;0.83;;
73733;SDS011;62039;50.000;9.064;2023-04-15T11:58:08;1.13;;;0.90;;
73733;SDS011;62039;50.000;9.064;2023-04-15T12:00:36;1.10;;;1.10;;
73733;SDS011;62039;50.000;9.064;2023-04-15T12:03:19;1.13;;;1.03;;
73733;SDS011;62039;50.000;9.064;2023-04-15T12:11:35;0.80;;;0.80;;
73733;SDS011;62039;50.000;9.064;2023-04-15T12:14:08;0.80;;;0.80;;
73733;SDS011;62039;50.000;9.064;2023-04-15T12:16:38;1.17;;;1.07;;
73733;SDS011;62039;50.000;9.064;2023-04-15T12:19:15;1.10;;;1.00;;
73733;SDS011;62039;50.000;9.064;2023-04-15T12:21:45;1.20;;;0.90;;
73733;SDS011;62039;50.000;9.064;2023-04-15T12:24:13;0.70;;;0.70;;
73733;SDS011;62039;50.000;9.064;2023-04-15T12:26:46;1.70;;;0.87;;
73733;SDS011;62039;50.000;9.064;2023-04-15T12:29:15;1.50;;;1.20;;
73733;SDS011;62039;50.000;9.064;2023-04-15T12:31:46;1.30;;;1.07;;
73733;SDS011;62039;50.000;9.064;2023-04-15T12:34:13;1.50;;;1.40;;
73733;SDS011;62039;50.000;9.064;2023-04-15T12:36:41;1.30;;;1.20;;
73733;SDS011;62039;50.000;9.064;2023-04-15T12:39:08;1.93;;;1.73;;
73733;SDS011;62039;50.000;9.064;2023-04-15T12:41:35;2.73;;;2.00;;
73733;SDS011;62039;50.000;9.064;2023-04-15T12:44:04;3.23;;;2.83;;
73733;SDS011;62039;50.000;9.064;2023-04-15T12:46:31;6.47;;;5.83;;
73733;SDS011;62039;50.000;9.064;2023-04-15T12:48:58;6.97;;;6.33;;
73733;SDS011;62039;50.000;9.064;2023-04-15T12:51:25;9.90;;;8.90;;
73733;SDS011;62039;50.000;9.064;2023-04-15T12:53:52;7.00;;;6.30;;
73733;SDS011;62039;50.000;9.064;2023-04-15T12:56:19;4.30;;;3.90;;
73733;SDS011;62039;50.000;9.064;2023-04-15T12:58:46;7.70;;;6.90;;
73733;SDS011;62039;50.000;9.064;2023-04-15T13:01:15;7.57;;;6.67;;
73733;SDS011;62039;50.000;9.064;2023-04-15T13:03:42;8.13;;;6.77;;
73733;SDS011;62039;50.000;9.064;2023-04-15T13:06:10;7.03;;;6.20;;
73733;SDS011;62039;50.000;9.064;2023-04-15T13:08:37;3.47;;;3.17;;
73733;SDS011;62039;50.000;9.064;2023-04-15T13:11:13;2.60;;;2.40;;
73733;SDS011;62039;50.000;9.064;2023-04-15T13:13:40;2.30;;;1.60;;
73733;SDS011;62039;50.000;9.064;2023-04-15T13:16:07;1.50;;;1.40;;
73733;SDS011;62039;50.000;9.064;2023-04-15T13:18:36;2.30;;;2.10;;
73733;SDS011;62039;50.000;9.064;2023-04-15T13:21:03;2.47;;;2.10;;
73733;SDS011;62039;50.000;9.064;2023-04-15T13:23:30;1.37;;;1.27;;
73733;SDS011;62039;50.000;9.064;2023-04-15T13:25:57;1.43;;;1.33;;
73733;SDS011;62039;50.000;9.064;2023-04-15T13:28:24;2.00;;;1.80;;
73733;SDS011;62039;50.000;9.064;2023-04-15T13:30:51;1.40;;;1.30;;
73733;SDS011;62039;50.000;9.064;2023-04-15T13:33:18;1.07;;;1.00;;
73733;SDS011;62039;50.000;9.064;2023-04-15T13:35:47;1.30;;;1.20;;
73733;SDS011;62039;50.000;9.064;2023-04-15T13:38:14;0.90;;;0.90;;
73733;SDS011;62039;50.000;9.064;2023-04-15T13:40:41;0.90;;;0.90;;
73733;SDS011;62039;50.000;9.064;2023-04-15T13:43:08;1.77;;;1.17;;
73733;SDS011;62039;50.000;9.064;2023-04-15T13:45:35;1.00;;;1.00;;
73733;SDS011;62039;50.000;9.064;2023-04-15T13:48:02;0.87;;;0.87;;
73733;SDS011;62039;50.000;9.064;2023-04-15T13:50:29;1.30;;;1.20;;
73733;SDS011;62039;50.000;9.064;2023-04-15T13:52:59;1.40;;;1.20;;
73733;SDS011;62039;50.000;9.064;2023-04-15T13:55:26;1.20;;;1.10;;
73733;SDS011;62039;50.000;9.064;2023-04-15T13:57:55;0.97;;;0.97;;
73733;SDS011;62039;50.000;9.064;2023-04-15T14:00:22;0.80;;;0.80;;
73733;SDS011;62039;50.000;9.064;2023-04-15T14:02:49;2.13;;;1.30;;
73733;SDS011;62039;50.000;9.064;2023-04-15T14:05:16;1.07;;;0.97;;
73733;SDS011;62039;50.000;9.064;2023-04-15T14:07:43;1.00;;;0.90;;
73733;SDS011;62039;50.000;9.064;2023-04-15T14:10:13;1.33;;;1.00;;
73733;SDS011;62039;50.000;9.064;2023-04-15T14:12:40;0.90;;;0.90;;
73733;SDS011;62039;50.000;9.064;2023-04-15T14:15:07;1.13;;;0.93;;
73733;SDS011;62039;50.000;9.064;2023-04-15T14:17:35;0.97;;;0.90;;
73733;SDS011;62039;50.000;9.064;2023-04-15T14:20:02;0.97;;;0.93;;
73733;SDS011;62039;50.000;9.064;2023-04-15T14:22:32;1.00;;;0.90;;
73733;SDS011;62039;50.000;9.064;2023-04-15T14:24:59;0.93;;;0.83;;
73733;SDS011;62039;50.000;9.064;2023-04-15T14:27:28;2.33;;;1.43;;
73733;SDS011;62039;50.000;9.064;2023-04-15T14:29:55;1.10;;;1.00;;
73733;SDS011;62039;50.000;9.064;2023-04-15T14:32:23;1.20;;;1.10;;
73733;SDS011;62039;50.000;9.064;2023-04-15T14:34:50;1.20;;;1.10;;
73733;SDS011;62039;50.000;9.064;2023-04-15T14:37:17;1.10;;;1.00;;
73733;SDS011;62039;50.000;9.064;2023-04-15T14:39:44;1.10;;;1.00;;
73733;SDS011;62039;50.000;9.064;2023-04-15T14:42:11;1.50;;;1.00;;
73733;SDS011;62039;50.000;9.064;2023-04-15T14:44:41;1.03;;;1.00;;
73733;SDS011;62039;50.000;9.064;2023-04-15T14:47:08;0.80;;;0.80;;
73733;SDS011;62039;50.000;9.064;2023-04-15T14:49:34;1.00;;;0.87;;
73733;SDS011;62039;50.000;9.064;2023-04-15T14:52:01;0.70;;;0.70;;
73733;SDS011;62039;50.000;9.064;2023-04-15T14:54:28;0.70;;;0.70;;
73733;SDS011;62039;50.000;9.064;2023-04-15T14:56:55;0.90;;;0.60;;
73733;SDS011;62039;50.000;9.064;2023-04-15T14:59:22;1.00;;;0.90;;
73733;SDS011;62039;50.000;9.064;2023-04-15T15:01:52;0.70;;;0.70;;
73733;SDS011;62039;50.000;9.064;2023-04-15T15:04:19;1.03;;;0.77;;